sensor_id;sensor_type;location;lat;lon;timestamp;P1;durP1;ratioP1;P2;durP2;ratioP2
61338;SDS011;47213;52.362;4.606;2023-03-14T00:03:16;13.20;;;3.20;;
61338;SDS011;47213;52.362;4.606;2023-03-14T00:08:16;18.30;;;3.30;;
61338;SDS011;47213;52.362;4.606;2023-03-14T00:18:16;14.60;;;2.80;;
61338;SDS011;47213;52.362;4.606;2023-03-14T00:23:16;14.60;;;2.80;;
61338;SDS011;47213;52.362;4.606;2023-03-14T00:33:16;17.20;;;2.50;;
61338;SDS011;47213;52.362;4.606;2023-03-14T00:38:16;12.70;;;2.70;;
61338;SDS011;47213;52.362;4.606;2023-03-14T00:58:17;13.90;;;2.80;;
61338;SDS011;47213;52.362;4.606;2023-03-14T01:03:17;13.90;;;2.80;;
61338;SDS011;47213;52.362;4.606;2023-03-14T01:08:17;16.50;;;3.40;;
61338;SDS011;47213;52.362;4.606;2023-03-14T01:13:17;16.50;;;3.40;;
61338;SDS011;47213;52.362;4.606;2023-03-14T01:28:17;24.30;;;4.00;;
61338;SDS011;47213;52.362;4.606;2023-03-14T01:38:17;24.60;;;4.40;;
61338;SDS011;47213;52.362;4.606;2023-03-14T01:43:19;24.60;;;4.40;;
61338;SDS011;47213;52.362;4.606;2023-03-14T01:48:17;24.80;;;4.00;;
61338;SDS011;47213;52.362;4.606;2023-03-14T01:53:17;24.80;;;4.00;;
61338;SDS011;47213;52.362;4.606;2023-03-14T01:58:17;21.30;;;4.10;;
61338;SDS011;47213;52.362;4.606;2023-03-14T02:03:17;21.30;;;4.10;;
61338;SDS011;47213;52.362;4.606;2023-03-14T02:13:18;20.70;;;3.90;;
61338;SDS011;47213;52.362;4.606;2023-03-14T02:18:17;20.60;;;3.50;;
61338;SDS011;47213;52.362;4.606;2023-03-14T02:38:33;20.00;;;3.50;;
61338;SDS011;47213;52.362;4.606;2023-03-14T02:53:20;16.90;;;3.00;;
61338;SDS011;47213;52.362;4.606;2023-03-14T02:58:18;17.30;;;3.00;;
61338;SDS011;47213;52.362;4.606;2023-03-14T03:03:17;17.30;;;3.00;;
61338;SDS011;47213;52.362;4.606;2023-03-14T03:08:18;14.10;;;2.70;;
61338;SDS011;47213;52.362;4.606;2023-03-14T03:13:18;14.10;;;2.70;;
61338;SDS011;47213;52.362;4.606;2023-03-14T03:33:17;11.90;;;2.60;;
61338;SDS011;47213;52.362;4.606;2023-03-14T03:43:17;13.40;;;3.30;;
61338;SDS011;47213;52.362;4.606;2023-03-14T03:53:17;14.40;;;3.20;;
61338;SDS011;47213;52.362;4.606;2023-03-14T04:03:17;18.30;;;3.90;;
61338;SDS011;47213;52.362;4.606;2023-03-14T04:08:17;20.00;;;4.30;;
61338;SDS011;47213;52.362;4.606;2023-03-14T04:13:17;20.00;;;4.30;;
61338;SDS011;47213;52.362;4.606;2023-03-14T04:18:17;13.70;;;3.70;;
61338;SDS011;47213;52.362;4.606;2023-03-14T04:23:17;13.70;;;3.70;;
61338;SDS011;47213;52.362;4.606;2023-03-14T04:28:17;17.70;;;4.40;;
61338;SDS011;47213;52.362;4.606;2023-03-14T04:33:17;17.70;;;4.40;;
61338;SDS011;47213;52.362;4.606;2023-03-14T04:43:17;15.20;;;3.50;;
61338;SDS011;47213;52.362;4.606;2023-03-14T04:48:17;18.10;;;4.00;;
61338;SDS011;47213;52.362;4.606;2023-03-14T05:08:17;17.50;;;4.00;;
61338;SDS011;47213;52.362;4.606;2023-03-14T05:13:17;17.50;;;4.00;;
61338;SDS011;47213;52.362;4.606;2023-03-14T05:33:17;15.30;;;2.80;;
61338;SDS011;47213;52.362;4.606;2023-03-14T05:38:17;13.10;;;2.40;;
61338;SDS011;47213;52.362;4.606;2023-03-14T05:43:17;13.10;;;2.40;;
61338;SDS011;47213;52.362;4.606;2023-03-14T06:08:17;17.70;;;2.40;;
61338;SDS011;47213;52.362;4.606;2023-03-14T06:23:17;10.40;;;1.90;;
61338;SDS011;47213;52.362;4.606;2023-03-14T06:28:17;11.90;;;1.80;;
61338;SDS011;47213;52.362;4.606;2023-03-14T06:43:17;8.90;;;1.60;;
61338;SDS011;47213;52.362;4.606;2023-03-14T06:48:17;11.10;;;1.80;;
61338;SDS011;47213;52.362;4.606;2023-03-14T07:03:17;10.60;;;2.20;;
61338;SDS011;47213;52.362;4.606;2023-03-14T07:08:18;12.90;;;2.30;;
61338;SDS011;47213;52.362;4.606;2023-03-14T07:13:17;12.90;;;2.30;;
61338;SDS011;47213;52.362;4.606;2023-03-14T07:18:17;18.70;;;2.90;;
61338;SDS011;47213;52.362;4.606;2023-03-14T07:28:18;16.20;;;2.90;;
61338;SDS011;47213;52.362;4.606;2023-03-14T07:33:18;16.20;;;2.90;;
61338;SDS011;47213;52.362;4.606;2023-03-14T07:38:18;14.90;;;2.40;;
61338;SDS011;47213;52.362;4.606;2023-03-14T07:43:18;14.90;;;2.40;;
61338;SDS011;47213;52.362;4.606;2023-03-14T07:58:18;6.80;;;1.40;;
61338;SDS011;47213;52.362;4.606;2023-03-14T08:03:18;6.80;;;1.40;;
61338;SDS011;47213;52.362;4.606;2023-03-14T08:18:18;10.60;;;2.20;;
61338;SDS011;47213;52.362;4.606;2023-03-14T08:23:18;10.60;;;2.20;;
61338;SDS011;47213;52.362;4.606;2023-03-14T08:28:18;16.70;;;2.90;;
61338;SDS011;47213;52.362;4.606;2023-03-14T08:33:18;16.70;;;2.90;;
61338;SDS011;47213;52.362;4.606;2023-03-14T08:38:18;16.70;;;3.10;;
61338;SDS011;47213;52.362;4.606;2023-03-14T08:58:18;18.80;;;3.20;;
61338;SDS011;47213;52.362;4.606;2023-03-14T09:03:18;18.80;;;3.20;;
61338;SDS011;47213;52.362;4.606;2023-03-14T09:08:18;20.20;;;3.40;;
61338;SDS011;47213;52.362;4.606;2023-03-14T09:18:18;17.00;;;3.30;;
61338;SDS011;47213;52.362;4.606;2023-03-14T09:23:18;17.00;;;3.30;;
61338;SDS011;47213;52.362;4.606;2023-03-14T09:28:18;16.80;;;3.60;;
61338;SDS011;47213;52.362;4.606;2023-03-14T09:33:18;16.80;;;3.60;;
61338;SDS011;47213;52.362;4.606;2023-03-14T09:38:18;17.70;;;3.50;;
61338;SDS011;47213;52.362;4.606;2023-03-14T09:43:18;17.70;;;3.50;;
61338;SDS011;47213;52.362;4.606;2023-03-14T09:48:27;21.90;;;3.40;;
61338;SDS011;47213;52.362;4.606;2023-03-14T09:53:24;21.90;;;3.40;;
61338;SDS011;47213;52.362;4.606;2023-03-14T09:58:21;22.10;;;3.30;;
61338;SDS011;47213;52.362;4.606;2023-03-14T10:03:22;22.10;;;3.30;;
61338;SDS011;47213;52.362;4.606;2023-03-14T10:08:18;24.40;;;3.80;;
61338;SDS011;47213;52.362;4.606;2023-03-14T10:13:22;24.40;;;3.80;;
61338;SDS011;47213;52.362;4.606;2023-03-14T10:18:18;19.60;;;3.20;;
61338;SDS011;47213;52.362;4.606;2023-03-14T10:23:26;19.60;;;3.20;;
61338;SDS011;47213;52.362;4.606;2023-03-14T10:28:28;16.40;;;2.90;;
61338;SDS011;47213;52.362;4.606;2023-03-14T10:48:21;17.10;;;2.70;;
61338;SDS011;47213;52.362;4.606;2023-03-14T11:03:19;16.10;;;2.40;;
61338;SDS011;47213;52.362;4.606;2023-03-14T11:08:23;11.80;;;2.60;;
61338;SDS011;47213;52.362;4.606;2023-03-14T11:13:30;13.10;;;2.30;;
61338;SDS011;47213;52.362;4.606;2023-03-14T11:23:23;13.10;;;2.30;;
61338;SDS011;47213;52.362;4.606;2023-03-14T11:28:26;10.20;;;1.80;;
61338;SDS011;47213;52.362;4.606;2023-03-14T11:33:35;8.10;;;1.40;;
61338;SDS011;47213;52.362;4.606;2023-03-14T11:38:28;8.10;;;1.40;;
61338;SDS011;47213;52.362;4.606;2023-03-14T11:43:30;8.10;;;1.40;;
61338;SDS011;47213;52.362;4.606;2023-03-14T11:48:20;7.10;;;1.30;;
61338;SDS011;47213;52.362;4.606;2023-03-14T11:53:22;7.10;;;1.30;;
61338;SDS011;47213;52.362;4.606;2023-03-14T12:08:29;10.60;;;1.50;;
61338;SDS011;47213;52.362;4.606;2023-03-14T12:13:19;10.60;;;1.50;;
61338;SDS011;47213;52.362;4.606;2023-03-14T12:18:20;7.10;;;1.20;;
61338;SDS011;47213;52.362;4.606;2023-03-14T12:23:18;7.10;;;1.20;;
61338;SDS011;47213;52.362;4.606;2023-03-14T12:28:20;8.30;;;1.20;;
61338;SDS011;47213;52.362;4.606;2023-03-14T12:33:20;8.30;;;1.20;;
61338;SDS011;47213;52.362;4.606;2023-03-14T12:38:26;10.10;;;1.30;;
61338;SDS011;47213;52.362;4.606;2023-03-14T12:43:29;10.10;;;1.30;;
61338;SDS011;47213;52.362;4.606;2023-03-14T12:48:22;7.20;;;1.50;;
61338;SDS011;47213;52.362;4.606;2023-03-14T13:03:21;7.20;;;1.20;;
61338;SDS011;47213;52.362;4.606;2023-03-14T13:08:44;8.90;;;1.50;;
61338;SDS011;47213;52.362;4.606;2023-03-14T13:13:24;8.90;;;1.50;;
61338;SDS011;47213;52.362;4.606;2023-03-14T13:18:45;8.40;;;1.70;;
61338;SDS011;47213;52.362;4.606;2023-03-14T13:23:26;8.40;;;1.70;;
61338;SDS011;47213;52.362;4.606;2023-03-14T13:33:21;6.20;;;1.40;;
61338;SDS011;47213;52.362;4.606;2023-03-14T13:38:20;10.80;;;1.60;;
61338;SDS011;47213;52.362;4.606;2023-03-14T13:43:21;10.80;;;1.60;;
61338;SDS011;47213;52.362;4.606;2023-03-14T13:48:19;8.20;;;1.80;;
61338;SDS011;47213;52.362;4.606;2023-03-14T13:53:19;8.20;;;1.80;;
61338;SDS011;47213;52.362;4.606;2023-03-14T13:58:28;9.30;;;1.60;;
61338;SDS011;47213;52.362;4.606;2023-03-14T14:03:19;9.30;;;1.60;;
61338;SDS011;47213;52.362;4.606;2023-03-14T14:08:19;7.70;;;1.40;;
61338;SDS011;47213;52.362;4.606;2023-03-14T14:28:36;7.00;;;1.30;;
61338;SDS011;47213;52.362;4.606;2023-03-14T14:38:19;6.80;;;1.50;;
61338;SDS011;47213;52.362;4.606;2023-03-14T14:53:22;9.30;;;1.50;;
61338;SDS011;47213;52.362;4.606;2023-03-14T14:58:24;7.40;;;1.50;;
61338;SDS011;47213;52.362;4.606;2023-03-14T15:03:19;7.40;;;1.50;;
61338;SDS011;47213;52.362;4.606;2023-03-14T15:08:19;9.80;;;1.60;;
61338;SDS011;47213;52.362;4.606;2023-03-14T15:13:19;9.80;;;1.60;;
61338;SDS011;47213;52.362;4.606;2023-03-14T15:23:20;11.70;;;2.00;;
61338;SDS011;47213;52.362;4.606;2023-03-14T15:28:22;10.90;;;2.00;;
61338;SDS011;47213;52.362;4.606;2023-03-14T15:33:19;10.90;;;2.00;;
61338;SDS011;47213;52.362;4.606;2023-03-14T15:38:21;6.50;;;1.70;;
61338;SDS011;47213;52.362;4.606;2023-03-14T15:43:19;6.50;;;1.70;;
61338;SDS011;47213;52.362;4.606;2023-03-14T15:48:20;10.00;;;1.50;;
61338;SDS011;47213;52.362;4.606;2023-03-14T15:53:19;10.00;;;1.50;;
61338;SDS011;47213;52.362;4.606;2023-03-14T15:58:20;8.80;;;1.80;;
61338;SDS011;47213;52.362;4.606;2023-03-14T16:03:19;8.80;;;1.80;;
61338;SDS011;47213;52.362;4.606;2023-03-14T16:08:19;8.80;;;1.80;;
61338;SDS011;47213;52.362;4.606;2023-03-14T16:13:19;8.80;;;1.80;;
61338;SDS011;47213;52.362;4.606;2023-03-14T16:18:19;9.80;;;1.90;;
61338;SDS011;47213;52.362;4.606;2023-03-14T16:23:19;9.80;;;1.90;;
61338;SDS011;47213;52.362;4.606;2023-03-14T16:28:19;9.20;;;1.70;;
61338;SDS011;47213;52.362;4.606;2023-03-14T16:33:19;9.20;;;1.70;;
61338;SDS011;47213;52.362;4.606;2023-03-14T16:38:19;8.90;;;1.60;;
61338;SDS011;47213;52.362;4.606;2023-03-14T16:43:19;8.90;;;1.60;;
61338;SDS011;47213;52.362;4.606;2023-03-14T16:48:19;11.70;;;2.20;;
61338;SDS011;47213;52.362;4.606;2023-03-14T16:53:19;11.70;;;2.20;;
61338;SDS011;47213;52.362;4.606;2023-03-14T16:58:19;8.00;;;1.90;;
61338;SDS011;47213;52.362;4.606;2023-03-14T17:03:20;8.00;;;1.90;;
61338;SDS011;47213;52.362;4.606;2023-03-14T17:13:19;8.60;;;1.70;;
61338;SDS011;47213;52.362;4.606;2023-03-14T17:18:19;24.70;;;12.20;;
61338;SDS011;47213;52.362;4.606;2023-03-14T17:23:19;24.70;;;12.20;;
61338;SDS011;47213;52.362;4.606;2023-03-14T17:28:20;12.70;;;2.70;;
61338;SDS011;47213;52.362;4.606;2023-03-14T17:33:19;12.70;;;2.70;;
61338;SDS011;47213;52.362;4.606;2023-03-14T17:38:19;10.40;;;2.20;;
61338;SDS011;47213;52.362;4.606;2023-03-14T17:43:19;10.40;;;2.20;;
61338;SDS011;47213;52.362;4.606;2023-03-14T18:03:19;10.80;;;2.50;;
61338;SDS011;47213;52.362;4.606;2023-03-14T18:13:19;10.70;;;2.10;;
61338;SDS011;47213;52.362;4.606;2023-03-14T18:18:19;10.60;;;2.30;;
61338;SDS011;47213;52.362;4.606;2023-03-14T18:23:20;10.60;;;2.30;;
61338;SDS011;47213;52.362;4.606;2023-03-14T18:28:19;14.10;;;3.60;;
61338;SDS011;47213;52.362;4.606;2023-03-14T18:33:20;14.10;;;3.60;;
61338;SDS011;47213;52.362;4.606;2023-03-14T18:43:19;10.70;;;2.20;;
61338;SDS011;47213;52.362;4.606;2023-03-14T18:48:19;11.80;;;2.60;;
61338;SDS011;47213;52.362;4.606;2023-03-14T18:53:19;11.80;;;2.60;;
61338;SDS011;47213;52.362;4.606;2023-03-14T19:03:19;13.50;;;2.60;;
61338;SDS011;47213;52.362;4.606;2023-03-14T19:08:20;15.90;;;3.60;;
61338;SDS011;47213;52.362;4.606;2023-03-14T19:13:21;15.90;;;3.60;;
61338;SDS011;47213;52.362;4.606;2023-03-14T19:18:19;13.00;;;2.90;;
61338;SDS011;47213;52.362;4.606;2023-03-14T19:23:19;13.00;;;2.90;;
61338;SDS011;47213;52.362;4.606;2023-03-14T19:28:21;11.60;;;2.50;;
61338;SDS011;47213;52.362;4.606;2023-03-14T19:38:19;9.30;;;2.20;;
61338;SDS011;47213;52.362;4.606;2023-03-14T19:43:19;9.30;;;2.20;;
61338;SDS011;47213;52.362;4.606;2023-03-14T19:48:19;6.80;;;2.00;;
61338;SDS011;47213;52.362;4.606;2023-03-14T19:58:20;9.30;;;1.90;;
61338;SDS011;47213;52.362;4.606;2023-03-14T20:03:19;9.30;;;1.90;;
61338;SDS011;47213;52.362;4.606;2023-03-14T20:08:20;9.70;;;2.10;;
61338;SDS011;47213;52.362;4.606;2023-03-14T20:18:20;10.10;;;2.00;;
61338;SDS011;47213;52.362;4.606;2023-03-14T20:23:20;10.10;;;2.00;;
61338;SDS011;47213;52.362;4.606;2023-03-14T20:33:20;10.90;;;2.00;;
61338;SDS011;47213;52.362;4.606;2023-03-14T20:38:20;8.80;;;2.20;;
61338;SDS011;47213;52.362;4.606;2023-03-14T20:48:20;10.80;;;2.40;;
61338;SDS011;47213;52.362;4.606;2023-03-14T20:53:20;10.80;;;2.40;;
61338;SDS011;47213;52.362;4.606;2023-03-14T20:58:20;9.30;;;2.40;;
61338;SDS011;47213;52.362;4.606;2023-03-14T21:03:20;9.30;;;2.40;;
61338;SDS011;47213;52.362;4.606;2023-03-14T21:13:20;11.50;;;2.70;;
61338;SDS011;47213;52.362;4.606;2023-03-14T21:18:20;6.10;;;1.80;;
61338;SDS011;47213;52.362;4.606;2023-03-14T21:23:21;6.10;;;1.80;;
61338;SDS011;47213;52.362;4.606;2023-03-14T21:28:20;8.00;;;2.10;;
61338;SDS011;47213;52.362;4.606;2023-03-14T21:33:20;8.00;;;2.10;;
61338;SDS011;47213;52.362;4.606;2023-03-14T21:43:20;5.00;;;1.60;;
61338;SDS011;47213;52.362;4.606;2023-03-14T21:48:20;8.40;;;1.80;;
61338;SDS011;47213;52.362;4.606;2023-03-14T21:53:20;8.40;;;1.80;;
61338;SDS011;47213;52.362;4.606;2023-03-14T21:58:20;9.40;;;2.00;;
61338;SDS011;47213;52.362;4.606;2023-03-14T22:03:20;9.40;;;2.00;;
61338;SDS011;47213;52.362;4.606;2023-03-14T22:23:20;7.00;;;1.70;;
61338;SDS011;47213;52.362;4.606;2023-03-14T22:28:20;5.40;;;1.40;;
61338;SDS011;47213;52.362;4.606;2023-03-14T22:33:20;5.40;;;1.40;;
61338;SDS011;47213;52.362;4.606;2023-03-14T22:38:20;6.40;;;1.50;;
61338;SDS011;47213;52.362;4.606;2023-03-14T22:43:20;6.40;;;1.50;;
61338;SDS011;47213;52.362;4.606;2023-03-14T22:58:20;5.60;;;1.50;;
61338;SDS011;47213;52.362;4.606;2023-03-14T23:03:20;5.60;;;1.50;;
61338;SDS011;47213;52.362;4.606;2023-03-14T23:13:20;5.20;;;1.30;;
61338;SDS011;47213;52.362;4.606;2023-03-14T23:18:20;5.90;;;1.60;;
61338;SDS011;47213;52.362;4.606;2023-03-14T23:23:20;5.90;;;1.60;;
61338;SDS011;47213;52.362;4.606;2023-03-14T23:28:20;7.20;;;1.60;;
61338;SDS011;47213;52.362;4.606;2023-03-14T23:33:20;7.20;;;1.60;;
61338;SDS011;47213;52.362;4.606;2023-03-14T23:48:22;6.80;;;1.70;;
61338;SDS011;47213;52.362;4.606;2023-03-14T23:53:20;6.80;;;1.70;;
